KLRF/LRF METAR and TAF weather

Enter ICAO airport designator
Station Type Date Time Source
KLRF METAR 2020/12/06 00:56 UTC NOAA

KLRF 060056Z AUTO 00000KT 10SM CLR 05/03 A3010 RMK AO2 SLP198 T00490026 $


Station Type Date Time Source
KLRF Decoded METAR 2020/12/06 00:56 UTC NOAA

Little Rock Air Force Base, AR, United States (KLRF) 34-55N 092-09W
Dec 05, 2020 - 07:56 PM EST / 2020.12.06 0056 UTC
Wind: Calm:0
Visibility: 10 mile(s):0
Sky conditions: clear
Temperature: 40.8 F (4.9 C)
Dew Point: 36.7 F (2.6 C)
Relative Humidity: 85%
Pressure (altimeter): 30.1 in. Hg (1019 hPa)
ob: KLRF 060056Z AUTO 00000KT 10SM CLR 05/03 A3010 RMK AO2 SLP198 T00490026
cycle: 1

Station Type Date Time Source
KLRF TAF 2020/12/05 23:21 UTC NOAA

TAF TAF KLRF 052300Z 0523/0705 34006KT 9999 SKC QNH30000INS
BECMG 0701/0702 02006KT 9999 FEW060 QNH3007INS TX11/0621Z TN03/0612Z

Example: see airport list